sensor_id;sensor_type;location;lat;lon;timestamp;P1;durP1;ratioP1;P2;durP2;ratioP2
17261;SDS011;9873;52.236;21.002;2023-06-14T00:09:54;11.03;;;8.23;;
17261;SDS011;9873;52.236;21.002;2023-06-14T00:20:01;10.53;;;8.00;;
17261;SDS011;9873;52.236;21.002;2023-06-14T00:30:07;13.43;;;8.10;;
17261;SDS011;9873;52.236;21.002;2023-06-14T00:40:12;12.87;;;8.27;;
17261;SDS011;9873;52.236;21.002;2023-06-14T00:50:19;11.77;;;9.48;;
17261;SDS011;9873;52.236;21.002;2023-06-14T01:00:23;15.10;;;9.80;;
17261;SDS011;9873;52.236;21.002;2023-06-14T01:10:39;15.67;;;9.50;;
17261;SDS011;9873;52.236;21.002;2023-06-14T01:20:46;13.53;;;9.27;;
17261;SDS011;9873;52.236;21.002;2023-06-14T01:31:00;14.53;;;9.47;;
17261;SDS011;9873;52.236;21.002;2023-06-14T01:41:07;13.63;;;10.00;;
17261;SDS011;9873;52.236;21.002;2023-06-14T01:51:13;12.77;;;10.27;;
17261;SDS011;9873;52.236;21.002;2023-06-14T02:01:16;11.90;;;9.40;;
17261;SDS011;9873;52.236;21.002;2023-06-14T02:11:19;13.93;;;9.67;;
17261;SDS011;9873;52.236;21.002;2023-06-14T02:21:26;13.13;;;8.43;;
17261;SDS011;9873;52.236;21.002;2023-06-14T02:31:29;11.23;;;8.98;;
17261;SDS011;9873;52.236;21.002;2023-06-14T02:41:33;12.02;;;8.00;;
17261;SDS011;9873;52.236;21.002;2023-06-14T02:51:36;15.20;;;9.03;;
17261;SDS011;9873;52.236;21.002;2023-06-14T03:01:41;10.02;;;8.30;;
17261;SDS011;9873;52.236;21.002;2023-06-14T03:11:49;11.93;;;8.80;;
17261;SDS011;9873;52.236;21.002;2023-06-14T03:21:52;9.33;;;7.90;;
17261;SDS011;9873;52.236;21.002;2023-06-14T03:31:57;10.32;;;8.48;;
17261;SDS011;9873;52.236;21.002;2023-06-14T03:42:07;11.27;;;9.03;;
17261;SDS011;9873;52.236;21.002;2023-06-14T03:52:14;10.20;;;8.13;;
17261;SDS011;9873;52.236;21.002;2023-06-14T04:02:19;9.32;;;7.68;;
17261;SDS011;9873;52.236;21.002;2023-06-14T04:12:24;11.87;;;7.97;;
17261;SDS011;9873;52.236;21.002;2023-06-14T04:22:27;11.25;;;7.82;;
17261;SDS011;9873;52.236;21.002;2023-06-14T04:32:32;12.98;;;8.48;;
17261;SDS011;9873;52.236;21.002;2023-06-14T04:42:43;8.43;;;7.53;;
17261;SDS011;9873;52.236;21.002;2023-06-14T04:52:52;11.02;;;7.40;;
17261;SDS011;9873;52.236;21.002;2023-06-14T05:02:59;10.93;;;7.40;;
17261;SDS011;9873;52.236;21.002;2023-06-14T05:13:04;10.02;;;7.47;;
17261;SDS011;9873;52.236;21.002;2023-06-14T05:23:08;10.13;;;7.63;;
17261;SDS011;9873;52.236;21.002;2023-06-14T05:33:18;8.60;;;7.15;;
17261;SDS011;9873;52.236;21.002;2023-06-14T05:43:30;10.00;;;8.90;;
17261;SDS011;9873;52.236;21.002;2023-06-14T05:53:35;11.05;;;7.53;;
17261;SDS011;9873;52.236;21.002;2023-06-14T06:03:38;8.75;;;7.85;;
17261;SDS011;9873;52.236;21.002;2023-06-14T06:13:42;11.13;;;8.15;;
17261;SDS011;9873;52.236;21.002;2023-06-14T06:23:47;10.82;;;8.07;;
17261;SDS011;9873;52.236;21.002;2023-06-14T06:33:54;10.38;;;7.60;;
17261;SDS011;9873;52.236;21.002;2023-06-14T06:43:57;9.25;;;7.95;;
17261;SDS011;9873;52.236;21.002;2023-06-14T06:54:03;10.23;;;8.35;;
17261;SDS011;9873;52.236;21.002;2023-06-14T07:04:09;11.75;;;8.48;;
17261;SDS011;9873;52.236;21.002;2023-06-14T07:14:14;9.48;;;8.45;;
17261;SDS011;9873;52.236;21.002;2023-06-14T07:24:17;10.50;;;8.23;;
17261;SDS011;9873;52.236;21.002;2023-06-14T07:34:22;14.02;;;8.98;;
17261;SDS011;9873;52.236;21.002;2023-06-14T07:44:24;10.43;;;6.55;;
17261;SDS011;9873;52.236;21.002;2023-06-14T07:54:27;8.20;;;6.90;;
17261;SDS011;9873;52.236;21.002;2023-06-14T08:04:35;6.93;;;5.50;;
17261;SDS011;9873;52.236;21.002;2023-06-14T08:14:41;6.88;;;5.10;;
17261;SDS011;9873;52.236;21.002;2023-06-14T08:24:47;7.15;;;5.90;;
17261;SDS011;9873;52.236;21.002;2023-06-14T08:34:52;9.05;;;6.45;;
17261;SDS011;9873;52.236;21.002;2023-06-14T08:45:20;8.73;;;6.00;;
17261;SDS011;9873;52.236;21.002;2023-06-14T08:55:27;9.63;;;6.35;;
17261;SDS011;9873;52.236;21.002;2023-06-14T09:05:30;7.43;;;5.68;;
17261;SDS011;9873;52.236;21.002;2023-06-14T09:15:35;7.50;;;5.72;;
17261;SDS011;9873;52.236;21.002;2023-06-14T09:25:45;7.75;;;5.50;;
17261;SDS011;9873;52.236;21.002;2023-06-14T09:35:54;8.93;;;5.63;;
17261;SDS011;9873;52.236;21.002;2023-06-14T09:45:56;12.20;;;5.30;;
17261;SDS011;9873;52.236;21.002;2023-06-14T09:56:04;6.18;;;4.13;;
17261;SDS011;9873;52.236;21.002;2023-06-14T10:06:09;6.78;;;5.03;;
17261;SDS011;9873;52.236;21.002;2023-06-14T10:16:19;4.50;;;4.10;;
17261;SDS011;9873;52.236;21.002;2023-06-14T10:26:32;4.97;;;3.80;;
17261;SDS011;9873;52.236;21.002;2023-06-14T10:36:35;5.40;;;3.67;;
17261;SDS011;9873;52.236;21.002;2023-06-14T10:46:45;4.78;;;3.33;;
17261;SDS011;9873;52.236;21.002;2023-06-14T10:56:51;4.28;;;3.30;;
17261;SDS011;9873;52.236;21.002;2023-06-14T11:07:04;7.88;;;3.65;;
17261;SDS011;9873;52.236;21.002;2023-06-14T11:17:12;5.32;;;3.65;;
17261;SDS011;9873;52.236;21.002;2023-06-14T11:27:20;7.00;;;4.28;;
17261;SDS011;9873;52.236;21.002;2023-06-14T11:37:25;5.47;;;2.55;;
17261;SDS011;9873;52.236;21.002;2023-06-14T11:47:35;3.35;;;2.05;;
17261;SDS011;9873;52.236;21.002;2023-06-14T11:57:39;4.40;;;3.15;;
17261;SDS011;9873;52.236;21.002;2023-06-14T12:07:42;5.70;;;2.45;;
17261;SDS011;9873;52.236;21.002;2023-06-14T12:17:47;4.53;;;2.78;;
17261;SDS011;9873;52.236;21.002;2023-06-14T12:27:49;4.97;;;2.28;;
17261;SDS011;9873;52.236;21.002;2023-06-14T12:37:53;2.67;;;1.73;;
17261;SDS011;9873;52.236;21.002;2023-06-14T12:47:56;5.18;;;2.88;;
17261;SDS011;9873;52.236;21.002;2023-06-14T12:58:01;3.90;;;2.38;;
17261;SDS011;9873;52.236;21.002;2023-06-14T13:08:06;2.72;;;2.20;;
17261;SDS011;9873;52.236;21.002;2023-06-14T13:18:17;2.25;;;1.95;;
17261;SDS011;9873;52.236;21.002;2023-06-14T13:28:20;4.18;;;2.58;;
17261;SDS011;9873;52.236;21.002;2023-06-14T13:38:29;3.03;;;2.17;;
17261;SDS011;9873;52.236;21.002;2023-06-14T13:48:32;3.70;;;2.85;;
17261;SDS011;9873;52.236;21.002;2023-06-14T13:58:39;4.13;;;2.42;;
17261;SDS011;9873;52.236;21.002;2023-06-14T14:08:46;3.20;;;2.50;;
17261;SDS011;9873;52.236;21.002;2023-06-14T14:18:48;4.15;;;2.67;;
17261;SDS011;9873;52.236;21.002;2023-06-14T14:28:56;3.97;;;2.40;;
17261;SDS011;9873;52.236;21.002;2023-06-14T14:38:58;3.80;;;2.72;;
17261;SDS011;9873;52.236;21.002;2023-06-14T14:49:01;6.55;;;2.65;;
17261;SDS011;9873;52.236;21.002;2023-06-14T14:59:03;6.10;;;2.90;;
17261;SDS011;9873;52.236;21.002;2023-06-14T15:09:10;4.20;;;2.70;;
17261;SDS011;9873;52.236;21.002;2023-06-14T15:19:19;3.22;;;2.55;;
17261;SDS011;9873;52.236;21.002;2023-06-14T15:29:21;3.10;;;2.20;;
17261;SDS011;9873;52.236;21.002;2023-06-14T15:39:26;4.15;;;2.80;;
17261;SDS011;9873;52.236;21.002;2023-06-14T15:49:28;4.32;;;2.65;;
17261;SDS011;9873;52.236;21.002;2023-06-14T15:59:34;4.68;;;2.88;;
17261;SDS011;9873;52.236;21.002;2023-06-14T16:09:37;3.05;;;2.60;;
17261;SDS011;9873;52.236;21.002;2023-06-14T16:19:41;6.40;;;3.70;;
17261;SDS011;9873;52.236;21.002;2023-06-14T16:29:50;5.40;;;3.65;;
17261;SDS011;9873;52.236;21.002;2023-06-14T16:40:00;5.55;;;3.88;;
17261;SDS011;9873;52.236;21.002;2023-06-14T16:50:07;7.47;;;4.50;;
17261;SDS011;9873;52.236;21.002;2023-06-14T17:00:10;7.25;;;5.00;;
17261;SDS011;9873;52.236;21.002;2023-06-14T17:10:16;6.95;;;4.68;;
17261;SDS011;9873;52.236;21.002;2023-06-14T17:20:21;6.50;;;5.30;;
17261;SDS011;9873;52.236;21.002;2023-06-14T17:30:23;6.35;;;3.90;;
17261;SDS011;9873;52.236;21.002;2023-06-14T17:40:31;7.60;;;5.25;;
17261;SDS011;9873;52.236;21.002;2023-06-14T17:50:52;7.15;;;5.00;;
17261;SDS011;9873;52.236;21.002;2023-06-14T18:00:54;5.47;;;4.47;;
17261;SDS011;9873;52.236;21.002;2023-06-14T18:11:01;8.18;;;3.75;;
17261;SDS011;9873;52.236;21.002;2023-06-14T18:21:10;5.88;;;4.13;;
17261;SDS011;9873;52.236;21.002;2023-06-14T18:31:16;7.65;;;4.78;;
17261;SDS011;9873;52.236;21.002;2023-06-14T18:41:21;5.68;;;4.90;;
17261;SDS011;9873;52.236;21.002;2023-06-14T18:51:28;8.90;;;4.93;;
17261;SDS011;9873;52.236;21.002;2023-06-14T19:01:35;7.43;;;5.22;;
17261;SDS011;9873;52.236;21.002;2023-06-14T19:11:42;10.57;;;4.85;;
17261;SDS011;9873;52.236;21.002;2023-06-14T19:21:49;8.25;;;5.05;;
17261;SDS011;9873;52.236;21.002;2023-06-14T19:31:51;8.27;;;5.57;;
17261;SDS011;9873;52.236;21.002;2023-06-14T19:52:44;7.80;;;5.75;;
17261;SDS011;9873;52.236;21.002;2023-06-14T20:02:50;9.25;;;7.15;;
17261;SDS011;9873;52.236;21.002;2023-06-14T20:12:55;8.27;;;5.80;;
17261;SDS011;9873;52.236;21.002;2023-06-14T20:23:02;7.00;;;5.95;;
17261;SDS011;9873;52.236;21.002;2023-06-14T20:33:06;8.75;;;6.32;;
17261;SDS011;9873;52.236;21.002;2023-06-14T20:43:11;14.10;;;7.40;;
17261;SDS011;9873;52.236;21.002;2023-06-14T20:53:22;10.20;;;7.22;;
17261;SDS011;9873;52.236;21.002;2023-06-14T21:03:31;9.38;;;6.90;;
17261;SDS011;9873;52.236;21.002;2023-06-14T21:13:43;10.57;;;7.13;;
17261;SDS011;9873;52.236;21.002;2023-06-14T21:23:49;10.30;;;7.93;;
17261;SDS011;9873;52.236;21.002;2023-06-14T21:33:52;9.10;;;6.90;;
17261;SDS011;9873;52.236;21.002;2023-06-14T21:43:56;8.43;;;6.78;;
17261;SDS011;9873;52.236;21.002;2023-06-14T21:54:03;10.82;;;7.45;;
17261;SDS011;9873;52.236;21.002;2023-06-14T22:04:11;12.80;;;7.60;;
17261;SDS011;9873;52.236;21.002;2023-06-14T22:14:20;8.05;;;7.13;;
17261;SDS011;9873;52.236;21.002;2023-06-14T22:24:25;8.77;;;7.63;;
17261;SDS011;9873;52.236;21.002;2023-06-14T22:34:27;11.13;;;7.88;;
17261;SDS011;9873;52.236;21.002;2023-06-14T22:44:32;12.27;;;7.40;;
17261;SDS011;9873;52.236;21.002;2023-06-14T22:54:37;9.75;;;7.45;;
17261;SDS011;9873;52.236;21.002;2023-06-14T23:04:42;11.48;;;8.10;;
17261;SDS011;9873;52.236;21.002;2023-06-14T23:14:48;11.38;;;7.97;;
17261;SDS011;9873;52.236;21.002;2023-06-14T23:24:51;12.43;;;7.85;;
17261;SDS011;9873;52.236;21.002;2023-06-14T23:34:53;8.38;;;7.47;;
17261;SDS011;9873;52.236;21.002;2023-06-14T23:44:59;11.90;;;9.07;;
17261;SDS011;9873;52.236;21.002;2023-06-14T23:55:08;10.50;;;9.02;;
